Terminal Aerodrome Forecast
Issued by NWS Wilmington, NC

Home | Current Version | Previous Version | Text Only | Print | Product List | Glossary On
Versions: 1 2 3 4 5 6 7 8 9 10 11 12 13 14 15
866
FTUS42 KILM 291752 CCA
TAFLBT
TAF COR
KLBT 291752Z 2918/3018 10010G15KT P6SM VCSH SCT025 BKN080
      TEMPO 2921/2924 4SM SHRA BKN025
     FM300100 12004KT 6SM -SHRA BKN014
     FM300400 13004KT 4SM SHRA BKN007
     FM301100 02004KT 6SM -SHRA SCT006 BKN015=

USA.gov is the U.S. government's official web portal to all federal, state and local government web resources and services.